Time;durP1;ratioP1;P1;durP2;ratioP2;P2;SDS_P1;SDS_P2;PMS_P1;PMS_P2;Temp;Humidity;BMP_temperature;BMP_pressure;BME280_temperature;BME280_humidity;BME280_pressure;Samples;Min_cycle;Max_cycle;Signal;HPM_P1;HPM_P2
2022/01/16 00:06:17;;;;;;;20.20;6.03;;;;;;;;;;5050275;28;20441;-72
2022/01/16 00:08:44;;;;;;;13.50;5.07;;;;;;;;;;5051354;28;20847;-72
2022/01/16 00:11:14;;;;;;;13.03;4.13;;;;;;;;;;5040147;28;20811;-71
2022/01/16 00:13:41;;;;;;;25.10;9.63;;;;;;;;;;5055194;28;20448;-71
2022/01/16 00:16:13;;;;;;;19.23;8.87;;;;;;;;;;5051829;28;20471;-72
2022/01/16 00:18:54;;;;;;;20.87;8.70;;;;;;;;;;5068442;28;21396;-71
2022/01/16 00:21:24;;;;;;;22.00;8.50;;;;;;;;;;5055744;28;21268;-72
2022/01/16 00:23:51;;;;;;;22.57;9.57;;;;;;;;;;5069935;28;20432;-72
2022/01/16 00:26:18;;;;;;;20.77;9.07;;;;;;;;;;5051742;28;20440;-71
2022/01/16 00:28:45;;;;;;;21.40;7.90;;;;;;;;;;5047542;28;20443;-71
2022/01/16 00:31:12;;;;;;;21.37;9.17;;;;;;;;;;5040394;28;20518;-71
2022/01/16 00:33:39;;;;;;;20.50;9.23;;;;;;;;;;5068963;28;20436;-71
2022/01/16 00:36:06;;;;;;;10.70;5.33;;;;;;;;;;5051744;28;20533;-70
2022/01/16 00:38:33;;;;;;;23.50;8.90;;;;;;;;;;5055932;28;20793;-71
2022/01/16 00:41:00;;;;;;;23.23;9.47;;;;;;;;;;5069138;28;20452;-71
2022/01/16 00:43:27;;;;;;;19.17;8.97;;;;;;;;;;5051302;28;20930;-72
2022/01/16 00:45:53;;;;;;;25.60;9.33;;;;;;;;;;5050502;28;20441;-71
2022/01/16 00:48:20;;;;;;;13.93;5.53;;;;;;;;;;5069187;28;20497;-71
2022/01/16 00:50:46;;;;;;;17.40;7.17;;;;;;;;;;5051489;28;20475;-71
2022/01/16 00:53:13;;;;;;;21.93;7.10;;;;;;;;;;5068684;28;20440;-71
2022/01/16 00:55:41;;;;;;;10.00;4.60;;;;;;;;;;5056837;28;20467;-71
2022/01/16 00:58:07;;;;;;;16.20;6.10;;;;;;;;;;5068602;28;20533;-71
2022/01/16 01:00:36;;;;;;;17.53;7.20;;;;;;;;;;5067803;28;20459;-71
2022/01/16 01:03:04;;;;;;;12.87;5.50;;;;;;;;;;5051109;28;20441;-71
2022/01/16 01:41:29;;;;;;;20.27;8.30;;;;;;;;;;5061398;28;20440;-71
2022/01/16 01:52:13;;;;;;;16.27;6.33;;;;;;;;;;5070146;28;20444;-71
2022/01/16 01:54:39;;;;;;;23.17;8.57;;;;;;;;;;5070523;28;20478;-71
2022/01/16 01:57:06;;;;;;;21.03;7.73;;;;;;;;;;5067682;28;20440;-71
2022/01/16 01:59:32;;;;;;;20.63;7.20;;;;;;;;;;5050170;28;20970;-71
2022/01/16 02:02:00;;;;;;;25.80;7.90;;;;;;;;;;5068062;28;20966;-71
2022/01/16 02:04:26;;;;;;;12.10;5.37;;;;;;;;;;5067824;28;20471;-71
2022/01/16 02:06:53;;;;;;;21.83;7.07;;;;;;;;;;5067841;28;20451;-70
2022/01/16 02:09:20;;;;;;;18.77;6.53;;;;;;;;;;5049936;28;20464;-71
2022/01/16 02:11:46;;;;;;;17.97;7.60;;;;;;;;;;5050438;28;21241;-71
2022/01/16 02:14:29;;;;;;;18.60;7.63;;;;;;;;;;5049519;28;20490;-71
2022/01/16 02:28:14;;;;;;;11.47;4.27;;;;;;;;;;5070053;28;20442;-71
2022/01/16 02:35:37;;;;;;;13.63;4.53;;;;;;;;;;5044641;28;21006;-71
2022/01/16 02:38:05;;;;;;;19.37;7.40;;;;;;;;;;5071121;28;20494;-71
2022/01/16 02:40:32;;;;;;;24.77;10.37;;;;;;;;;;5070588;28;20449;-71
2022/01/16 02:42:59;;;;;;;20.13;7.73;;;;;;;;;;5071322;28;20456;-71
2022/01/16 02:45:30;;;;;;;12.97;5.00;;;;;;;;;;5069756;28;20448;-72
2022/01/16 02:47:59;;;;;;;23.77;8.87;;;;;;;;;;5056773;28;21022;-72
2022/01/16 02:50:25;;;;;;;21.13;7.47;;;;;;;;;;5052722;28;20475;-72
2022/01/16 02:52:52;;;;;;;37.70;10.47;;;;;;;;;;5071446;28;20539;-71
2022/01/16 02:55:20;;;;;;;17.80;5.87;;;;;;;;;;5069968;28;20491;-71
2022/01/16 02:57:48;;;;;;;16.50;5.07;;;;;;;;;;5036487;28;20965;-71
2022/01/16 03:00:15;;;;;;;23.90;6.87;;;;;;;;;;5052531;28;20446;-71
2022/01/16 03:02:41;;;;;;;13.43;4.10;;;;;;;;;;5070944;28;20483;-72
2022/01/16 03:05:08;;;;;;;12.63;4.13;;;;;;;;;;5069876;28;20464;-72
2022/01/16 03:07:35;;;;;;;23.77;9.17;;;;;;;;;;5053332;28;20551;-72
2022/01/16 03:12:42;;;;;;;32.43;10.47;;;;;;;;;;5069683;28;20448;-71
2022/01/16 03:15:08;;;;;;;30.63;7.87;;;;;;;;;;5070637;28;20497;-72
2022/01/16 03:17:52;;;;;;;14.13;6.03;;;;;;;;;;5070696;28;20444;-71
2022/01/16 03:23:04;;;;;;;22.80;9.00;;;;;;;;;;5052692;28;21226;-71
2022/01/16 03:25:31;;;;;;;16.53;7.13;;;;;;;;;;5052066;28;20556;-71
2022/01/16 03:27:58;;;;;;;23.17;7.40;;;;;;;;;;5070675;28;20452;-71
2022/01/16 03:30:25;;;;;;;19.40;8.13;;;;;;;;;;5069790;28;20437;-72
2022/01/16 03:32:51;;;;;;;20.27;7.70;;;;;;;;;;5069882;28;20445;-72
2022/01/16 03:35:18;;;;;;;18.30;6.67;;;;;;;;;;5052448;28;20456;-71
2022/01/16 03:37:44;;;;;;;22.90;8.90;;;;;;;;;;5071064;28;20435;-72
2022/01/16 03:40:11;;;;;;;25.83;8.77;;;;;;;;;;5051999;28;20440;-71
2022/01/16 03:42:38;;;;;;;25.53;10.13;;;;;;;;;;5070564;28;20444;-72
2022/01/16 03:45:05;;;;;;;20.77;7.87;;;;;;;;;;5052435;28;20432;-72
2022/01/16 03:47:32;;;;;;;21.40;8.07;;;;;;;;;;5037033;28;20527;-71
2022/01/16 03:49:59;;;;;;;23.83;8.93;;;;;;;;;;5069279;28;20506;-71
2022/01/16 03:52:26;;;;;;;12.17;5.30;;;;;;;;;;5052667;28;20428;-71
2022/01/16 03:54:53;;;;;;;26.07;9.37;;;;;;;;;;5052757;28;20432;-71
2022/01/16 03:57:20;;;;;;;18.13;6.83;;;;;;;;;;5070140;28;20440;-71
2022/01/16 03:59:46;;;;;;;23.17;7.43;;;;;;;;;;5070300;28;20506;-71
2022/01/16 04:02:13;;;;;;;21.43;7.90;;;;;;;;;;5052463;28;20437;-72
2022/01/16 04:04:40;;;;;;;10.67;4.60;;;;;;;;;;5039525;28;20461;-70
2022/01/16 04:07:08;;;;;;;26.40;8.23;;;;;;;;;;5029109;28;20461;-71
2022/01/16 04:09:35;;;;;;;23.53;7.13;;;;;;;;;;5030190;28;20446;-72
2022/01/16 04:12:03;;;;;;;19.60;7.83;;;;;;;;;;5028821;28;21313;-71
2022/01/16 04:17:15;;;;;;;15.93;5.90;;;;;;;;;;5029967;28;21026;-72
2022/01/16 04:19:42;;;;;;;21.53;5.10;;;;;;;;;;5029478;28;20845;-71
2022/01/16 04:22:09;;;;;;;11.53;5.30;;;;;;;;;;5029288;28;20430;-72
2022/01/16 04:24:35;;;;;;;19.70;6.63;;;;;;;;;;5028556;28;20480;-71
2022/01/16 04:27:02;;;;;;;16.47;6.40;;;;;;;;;;5028744;28;20450;-72
2022/01/16 04:29:29;;;;;;;20.27;7.80;;;;;;;;;;5028333;28;20450;-71
2022/01/16 04:31:55;;;;;;;12.63;5.33;;;;;;;;;;5029587;28;20533;-72
2022/01/16 04:34:22;;;;;;;21.10;7.70;;;;;;;;;;5008748;28;20450;-71
2022/01/16 04:36:48;;;;;;;17.10;7.10;;;;;;;;;;5026505;28;21009;-71
2022/01/16 04:39:18;;;;;;;22.30;7.83;;;;;;;;;;5029510;28;20446;-72
2022/01/16 04:44:30;;;;;;;11.27;4.30;;;;;;;;;;5028701;28;20954;-72
2022/01/16 04:46:57;;;;;;;22.83;7.90;;;;;;;;;;5028441;28;20488;-72
2022/01/16 04:49:24;;;;;;;22.90;7.10;;;;;;;;;;5029063;28;20814;-72
2022/01/16 04:51:50;;;;;;;24.80;9.23;;;;;;;;;;5029073;28;20446;-72
2022/01/16 04:54:17;;;;;;;21.27;7.83;;;;;;;;;;5029575;28;20434;-71
2022/01/16 04:56:43;;;;;;;15.57;6.73;;;;;;;;;;5028270;28;20486;-72
2022/01/16 04:59:10;;;;;;;20.33;7.63;;;;;;;;;;5029532;28;20430;-72
2022/01/16 05:01:37;;;;;;;21.10;7.10;;;;;;;;;;5029148;28;20500;-72
2022/01/16 05:04:03;;;;;;;17.33;6.07;;;;;;;;;;5037415;28;20460;-71
2022/01/16 05:06:30;;;;;;;19.70;6.90;;;;;;;;;;5051020;28;20679;-72
2022/01/16 05:08:56;;;;;;;22.40;8.03;;;;;;;;;;5051181;28;20440;-72
2022/01/16 05:11:26;;;;;;;19.60;7.07;;;;;;;;;;5066930;28;20436;-71
2022/01/16 05:16:39;;;;;;;18.00;6.60;;;;;;;;;;5068376;28;21210;-71
2022/01/16 05:19:07;;;;;;;8.43;4.03;;;;;;;;;;5035989;28;20543;-72
2022/01/16 05:21:34;;;;;;;16.03;6.30;;;;;;;;;;5067926;28;20440;-72
2022/01/16 05:24:03;;;;;;;20.57;7.60;;;;;;;;;;5067709;28;20939;-71
2022/01/16 05:26:31;;;;;;;13.00;4.77;;;;;;;;;;5050838;28;20444;-72
2022/01/16 05:28:57;;;;;;;16.90;6.83;;;;;;;;;;5067619;28;20445;-71
2022/01/16 05:31:24;;;;;;;23.50;8.00;;;;;;;;;;5067566;28;20460;-72
2022/01/16 05:33:51;;;;;;;22.67;9.10;;;;;;;;;;5068174;28;20483;-71
2022/01/16 05:36:21;;;;;;;20.70;9.07;;;;;;;;;;5035964;28;21035;-72
2022/01/16 05:38:47;;;;;;;22.63;8.17;;;;;;;;;;5032943;28;20813;-72
2022/01/16 05:41:14;;;;;;;12.03;4.53;;;;;;;;;;5068130;28;21017;-71
2022/01/16 05:43:41;;;;;;;9.70;4.50;;;;;;;;;;5068054;28;20451;-72
2022/01/16 05:46:07;;;;;;;20.43;6.40;;;;;;;;;;5067215;28;20931;-72
2022/01/16 05:48:34;;;;;;;17.50;7.40;;;;;;;;;;5067384;28;20452;-72
2022/01/16 05:51:01;;;;;;;9.70;4.33;;;;;;;;;;5067632;28;20428;-72
2022/01/16 05:53:28;;;;;;;25.73;8.83;;;;;;;;;;5050024;28;20440;-72
2022/01/16 05:55:55;;;;;;;16.00;5.43;;;;;;;;;;5049988;28;20506;-71
2022/01/16 05:58:21;;;;;;;24.90;8.63;;;;;;;;;;5067975;28;20751;-72
2022/01/16 06:00:48;;;;;;;20.23;8.37;;;;;;;;;;5066867;28;20524;-71
2022/01/16 06:03:15;;;;;;;26.83;7.37;;;;;;;;;;5067834;28;20455;-72
2022/01/16 06:05:42;;;;;;;18.50;7.43;;;;;;;;;;5066979;28;20475;-72
2022/01/16 06:08:12;;;;;;;23.17;5.30;;;;;;;;;;5049874;28;20451;-69
2022/01/16 06:10:39;;;;;;;15.87;5.53;;;;;;;;;;5067661;28;20444;-69
2022/01/16 06:13:05;;;;;;;21.93;9.77;;;;;;;;;;5052819;28;20467;-69
2022/01/16 06:15:32;;;;;;;21.73;9.67;;;;;;;;;;5050257;28;20462;-68
2022/01/16 06:18:00;;;;;;;22.40;9.73;;;;;;;;;;5067011;28;20572;-67
2022/01/16 06:20:27;;;;;;;24.53;9.27;;;;;;;;;;5067674;28;21175;-69
2022/01/16 06:22:53;;;;;;;13.40;5.53;;;;;;;;;;5050177;28;20891;-70
2022/01/16 06:25:20;;;;;;;13.30;5.63;;;;;;;;;;5067326;28;20957;-70
2022/01/16 06:27:47;;;;;;;21.63;5.80;;;;;;;;;;5068003;28;20882;-70
2022/01/16 06:30:13;;;;;;;18.00;7.63;;;;;;;;;;5066815;28;20440;-71
2022/01/16 06:32:40;;;;;;;20.37;7.03;;;;;;;;;;5067005;28;21008;-72
2022/01/16 06:35:07;;;;;;;19.80;7.87;;;;;;;;;;5048429;28;20444;-70
2022/01/16 06:37:33;;;;;;;19.80;9.07;;;;;;;;;;5050476;28;20577;-69
2022/01/16 06:40:01;;;;;;;17.60;7.43;;;;;;;;;;5068386;28;20439;-70
2022/01/16 06:42:28;;;;;;;18.47;7.63;;;;;;;;;;5050318;28;20436;-70
2022/01/16 06:44:54;;;;;;;20.70;8.53;;;;;;;;;;5034022;28;20447;-69
2022/01/16 06:47:21;;;;;;;17.40;8.07;;;;;;;;;;5050834;28;20468;-68
2022/01/16 06:49:47;;;;;;;12.70;5.53;;;;;;;;;;5065772;28;20452;-70
2022/01/16 06:52:14;;;;;;;19.40;7.33;;;;;;;;;;5050705;28;20523;-70
2022/01/16 06:54:41;;;;;;;21.53;7.23;;;;;;;;;;5050692;28;20444;-70
2022/01/16 06:57:08;;;;;;;23.70;9.40;;;;;;;;;;5062545;28;20484;-73
2022/01/16 06:59:38;;;;;;;28.40;10.20;;;;;;;;;;5071742;28;20443;-70
2022/01/16 07:02:05;;;;;;;15.00;6.03;;;;;;;;;;5050339;28;21841;-75
2022/01/16 07:04:32;;;;;;;22.83;9.30;;;;;;;;;;5071467;28;20475;-72
2022/01/16 07:06:59;;;;;;;22.43;8.97;;;;;;;;;;5060818;28;20504;-71
2022/01/16 07:09:26;;;;;;;21.53;6.87;;;;;;;;;;5068958;28;20451;-71
2022/01/16 07:11:52;;;;;;;26.47;11.50;;;;;;;;;;5072555;28;20440;-71
2022/01/16 07:14:19;;;;;;;24.10;9.13;;;;;;;;;;5055637;28;20448;-72
2022/01/16 07:16:46;;;;;;;14.67;7.80;;;;;;;;;;5078200;28;20467;-71
2022/01/16 07:19:12;;;;;;;24.67;10.43;;;;;;;;;;5072822;28;20559;-71
2022/01/16 07:21:39;;;;;;;28.10;11.53;;;;;;;;;;5070769;28;20985;-72
2022/01/16 07:24:06;;;;;;;19.73;8.67;;;;;;;;;;5080439;28;20441;-72
2022/01/16 07:26:32;;;;;;;13.43;5.23;;;;;;;;;;5069460;28;21005;-71
2022/01/16 07:28:59;;;;;;;22.17;8.03;;;;;;;;;;5056580;28;20555;-71
2022/01/16 07:31:26;;;;;;;27.03;11.27;;;;;;;;;;5074672;28;20444;-72
2022/01/16 07:33:54;;;;;;;19.83;7.90;;;;;;;;;;5066763;28;20448;-70
2022/01/16 07:36:21;;;;;;;18.23;6.23;;;;;;;;;;5071256;28;20457;-71
2022/01/16 07:38:48;;;;;;;17.60;7.00;;;;;;;;;;5078203;28;20454;-72
2022/01/16 07:41:14;;;;;;;39.43;10.90;;;;;;;;;;5070474;28;20461;-72
2022/01/16 07:43:41;;;;;;;25.10;8.43;;;;;;;;;;5035710;28;20568;-72
2022/01/16 07:46:08;;;;;;;29.93;10.90;;;;;;;;;;5055826;28;20472;-72
2022/01/16 07:48:35;;;;;;;24.33;9.40;;;;;;;;;;5035384;28;20498;-73
2022/01/16 07:51:02;;;;;;;23.30;8.63;;;;;;;;;;5053946;28;20444;-74
2022/01/16 07:53:28;;;;;;;27.57;9.27;;;;;;;;;;5072292;28;20459;-70
2022/01/16 07:55:55;;;;;;;22.90;8.53;;;;;;;;;;5066647;28;20603;-70
2022/01/16 07:58:22;;;;;;;25.97;8.77;;;;;;;;;;5047529;28;20907;-74
2022/01/16 08:00:53;;;;;;;30.03;10.80;;;;;;;;;;5051837;28;20436;-73
2022/01/16 08:03:20;;;;;;;18.60;6.97;;;;;;;;;;5069620;28;20439;-73
2022/01/16 08:05:46;;;;;;;30.33;10.53;;;;;;;;;;5070359;28;20472;-73
2022/01/16 08:08:13;;;;;;;25.30;10.93;;;;;;;;;;5070588;28;20490;-73
2022/01/16 08:10:40;;;;;;;15.40;6.47;;;;;;;;;;5052253;28;20444;-72
2022/01/16 08:13:06;;;;;;;18.57;6.50;;;;;;;;;;5067209;28;21158;-72
2022/01/16 08:15:33;;;;;;;21.83;7.93;;;;;;;;;;5062330;28;20445;-72
2022/01/16 08:18:00;;;;;;;21.63;8.83;;;;;;;;;;5050640;28;20508;-73
2022/01/16 08:20:27;;;;;;;31.90;10.70;;;;;;;;;;5070284;28;20501;-74
2022/01/16 08:22:54;;;;;;;15.43;6.47;;;;;;;;;;5070675;28;20431;-74
2022/01/16 08:25:22;;;;;;;18.80;7.47;;;;;;;;;;5053295;28;20455;-74
2022/01/16 08:27:48;;;;;;;24.17;10.83;;;;;;;;;;5051524;28;20497;-73
2022/01/16 08:30:16;;;;;;;21.80;9.37;;;;;;;;;;5054968;28;20444;-73
2022/01/16 08:32:44;;;;;;;28.70;12.70;;;;;;;;;;5070138;28;20514;-73
2022/01/16 08:35:11;;;;;;;23.10;10.00;;;;;;;;;;5069595;28;20432;-73
2022/01/16 08:37:38;;;;;;;26.90;10.67;;;;;;;;;;5052413;28;20471;-73
2022/01/16 08:40:06;;;;;;;22.30;9.37;;;;;;;;;;5065231;28;20791;-74
2022/01/16 08:42:35;;;;;;;21.27;9.23;;;;;;;;;;5052377;28;20439;-74
2022/01/16 08:45:02;;;;;;;24.93;6.73;;;;;;;;;;5051766;28;20436;-74
2022/01/16 08:47:30;;;;;;;26.10;9.87;;;;;;;;;;5069853;28;20455;-74
2022/01/16 08:49:58;;;;;;;27.70;10.23;;;;;;;;;;5069168;28;20451;-73
2022/01/16 08:52:26;;;;;;;17.87;7.50;;;;;;;;;;5051985;28;20436;-73
2022/01/16 08:54:52;;;;;;;26.30;9.93;;;;;;;;;;5069205;28;20432;-73
2022/01/16 08:57:19;;;;;;;24.30;8.70;;;;;;;;;;5069351;28;20879;-73
2022/01/16 08:59:48;;;;;;;25.40;8.87;;;;;;;;;;5052538;28;21018;-73
2022/01/16 09:02:16;;;;;;;15.97;6.13;;;;;;;;;;5057043;28;20440;-73
2022/01/16 09:04:43;;;;;;;16.87;6.17;;;;;;;;;;5050629;28;20460;-72
2022/01/16 09:07:10;;;;;;;19.00;7.67;;;;;;;;;;5051422;28;20429;-74
2022/01/16 09:09:37;;;;;;;12.70;5.07;;;;;;;;;;5052039;28;20534;-72
2022/01/16 09:12:04;;;;;;;15.07;6.23;;;;;;;;;;5051423;28;20445;-72
2022/01/16 09:14:32;;;;;;;23.00;7.23;;;;;;;;;;5064835;28;20440;-72
2022/01/16 09:16:59;;;;;;;23.87;9.27;;;;;;;;;;5062729;28;20473;-72
2022/01/16 09:19:26;;;;;;;23.97;8.60;;;;;;;;;;5052545;28;20428;-72
2022/01/16 09:21:53;;;;;;;17.30;6.23;;;;;;;;;;5051334;28;20790;-72
2022/01/16 09:24:20;;;;;;;19.80;6.23;;;;;;;;;;5062524;28;20523;-73
2022/01/16 09:26:48;;;;;;;15.77;7.47;;;;;;;;;;5069316;28;20432;-73
2022/01/16 09:29:14;;;;;;;12.10;5.23;;;;;;;;;;5068369;28;20849;-74
2022/01/16 09:31:41;;;;;;;26.47;8.23;;;;;;;;;;5068990;28;20940;-73
2022/01/16 09:34:08;;;;;;;20.23;4.93;;;;;;;;;;5049677;28;20452;-74
2022/01/16 09:36:37;;;;;;;13.73;5.77;;;;;;;;;;5064554;28;20447;-73
2022/01/16 09:39:04;;;;;;;14.73;4.83;;;;;;;;;;5061766;28;20837;-73
2022/01/16 09:41:30;;;;;;;17.63;7.53;;;;;;;;;;5051782;28;20490;-73
2022/01/16 09:43:57;;;;;;;19.13;6.33;;;;;;;;;;5050651;28;20440;-73
2022/01/16 09:46:24;;;;;;;13.53;4.67;;;;;;;;;;5068910;28;20428;-73
2022/01/16 09:48:51;;;;;;;9.00;3.63;;;;;;;;;;5053044;28;20465;-74
2022/01/16 09:51:18;;;;;;;21.87;7.83;;;;;;;;;;5062426;28;20441;-74
2022/01/16 09:53:47;;;;;;;29.70;7.47;;;;;;;;;;5062940;28;20875;-74
2022/01/16 09:56:13;;;;;;;18.80;6.70;;;;;;;;;;5031009;28;20735;-73
2022/01/16 09:58:41;;;;;;;22.37;8.07;;;;;;;;;;5044539;28;20468;-74
2022/01/16 10:01:08;;;;;;;14.37;4.23;;;;;;;;;;5073142;28;20477;-73
2022/01/16 10:03:36;;;;;;;15.93;5.83;;;;;;;;;;5063287;28;20450;-73
2022/01/16 10:06:06;;;;;;;15.23;4.97;;;;;;;;;;5059463;28;20559;-73
2022/01/16 10:08:33;;;;;;;15.30;4.17;;;;;;;;;;5059361;28;20452;-73
2022/01/16 10:11:01;;;;;;;25.20;6.57;;;;;;;;;;5050432;28;20433;-73
2022/01/16 10:13:38;;;;;;;20.40;6.17;;;;;;;;;;5065488;28;20456;-73
2022/01/16 10:16:05;;;;;;;22.10;3.60;;;;;;;;;;5064571;28;20444;-73
2022/01/16 10:18:39;;;;;;;19.30;6.77;;;;;;;;;;5066901;28;20478;-73
2022/01/16 10:21:06;;;;;;;8.43;3.40;;;;;;;;;;5049341;28;20455;-69
2022/01/16 10:23:39;;;;;;;18.60;7.23;;;;;;;;;;5049714;28;20441;-70
2022/01/16 10:26:16;;;;;;;14.27;5.33;;;;;;;;;;5060384;28;20439;-70
2022/01/16 10:28:43;;;;;;;11.43;4.10;;;;;;;;;;5039430;28;20496;-75
2022/01/16 10:31:09;;;;;;;16.50;4.40;;;;;;;;;;5038701;28;21583;-69
2022/01/16 10:33:36;;;;;;;21.77;7.00;;;;;;;;;;5051433;28;20457;-66
2022/01/16 10:36:03;;;;;;;17.47;7.03;;;;;;;;;;5068488;28;20476;-67
2022/01/16 10:38:30;;;;;;;22.87;8.30;;;;;;;;;;5066086;28;20476;-67
2022/01/16 10:40:57;;;;;;;11.60;4.57;;;;;;;;;;5052134;28;20443;-68
2022/01/16 10:43:40;;;;;;;23.00;8.10;;;;;;;;;;5065320;28;20989;-67
2022/01/16 10:46:08;;;;;;;18.30;7.50;;;;;;;;;;5070873;28;20467;-67
2022/01/16 10:49:14;;;;;;;28.37;10.67;;;;;;;;;;5071321;28;20451;-68
2022/01/16 10:51:40;;;;;;;15.30;6.53;;;;;;;;;;5071680;28;20435;-69
2022/01/16 10:54:26;;;;;;;10.63;4.20;;;;;;;;;;5068665;28;20441;-70
2022/01/16 10:56:53;;;;;;;14.83;5.40;;;;;;;;;;5069541;28;20438;-70
2022/01/16 10:59:23;;;;;;;8.60;3.77;;;;;;;;;;5052917;28;20439;-70
2022/01/16 11:02:05;;;;;;;24.23;9.20;;;;;;;;;;5049575;28;20450;-68
2022/01/16 11:04:32;;;;;;;18.63;7.13;;;;;;;;;;5076331;28;20476;-67
2022/01/16 11:07:02;;;;;;;16.63;6.50;;;;;;;;;;5056405;28;20447;-68
2022/01/16 11:09:29;;;;;;;22.80;9.00;;;;;;;;;;5072402;28;20432;-68
2022/01/16 11:11:59;;;;;;;25.07;9.73;;;;;;;;;;5057708;28;20977;-67
2022/01/16 11:14:29;;;;;;;24.43;10.97;;;;;;;;;;5079409;28;20444;-67
2022/01/16 11:16:56;;;;;;;25.83;8.57;;;;;;;;;;5066955;28;20452;-68
2022/01/16 11:19:24;;;;;;;19.63;5.83;;;;;;;;;;5056999;28;20451;-68
2022/01/16 11:21:56;;;;;;;10.93;5.10;;;;;;;;;;5072005;28;20439;-67
2022/01/16 11:24:47;;;;;;;16.73;6.50;;;;;;;;;;5066543;28;20440;-69
2022/01/16 11:27:16;;;;;;;17.27;6.10;;;;;;;;;;5062497;28;20515;-66
2022/01/16 11:29:43;;;;;;;15.80;6.17;;;;;;;;;;5054122;28;20436;-67
2022/01/16 11:32:09;;;;;;;11.53;4.53;;;;;;;;;;5057459;28;20823;-68
2022/01/16 11:34:36;;;;;;;14.57;5.40;;;;;;;;;;5048050;28;20458;-67
2022/01/16 11:37:03;;;;;;;19.43;6.87;;;;;;;;;;5053868;28;20447;-68
2022/01/16 11:39:34;;;;;;;12.17;4.03;;;;;;;;;;5051863;28;21555;-65
2022/01/16 11:42:02;;;;;;;11.37;4.97;;;;;;;;;;5067883;28;20432;-68
2022/01/16 11:44:30;;;;;;;21.90;4.23;;;;;;;;;;5069610;28;21163;-67
2022/01/16 11:46:57;;;;;;;21.87;7.33;;;;;;;;;;5075227;28;20436;-69
2022/01/16 11:49:37;;;;;;;20.53;4.50;;;;;;;;;;5068729;28;20528;-67
2022/01/16 11:52:24;;;;;;;23.80;7.40;;;;;;;;;;5065746;28;20533;-68
2022/01/16 11:54:51;;;;;;;13.77;4.13;;;;;;;;;;5067722;28;20452;-68
2022/01/16 11:57:21;;;;;;;11.10;4.53;;;;;;;;;;5074499;28;20435;-67
2022/01/16 11:59:49;;;;;;;23.97;6.80;;;;;;;;;;5076321;28;20513;-69
2022/01/16 12:02:17;;;;;;;21.07;6.43;;;;;;;;;;5041886;28;20472;-69
2022/01/16 12:04:43;;;;;;;21.43;6.57;;;;;;;;;;5049471;28;20563;-67
2022/01/16 12:07:20;;;;;;;13.83;4.90;;;;;;;;;;5056035;28;20476;-67
2022/01/16 12:09:53;;;;;;;16.43;3.83;;;;;;;;;;5053587;28;20521;-69
2022/01/16 12:12:21;;;;;;;15.23;5.63;;;;;;;;;;5049977;28;20885;-69
2022/01/16 12:15:07;;;;;;;15.63;6.10;;;;;;;;;;5062610;28;20440;-69
2022/01/16 12:20:09;;;;;;;21.23;5.77;;;;;;;;;;5065267;28;20923;-68
2022/01/16 12:22:41;;;;;;;13.10;5.67;;;;;;;;;;5075168;28;20543;-67
2022/01/16 12:25:28;;;;;;;13.70;4.67;;;;;;;;;;5070670;28;20523;-68
2022/01/16 12:27:54;;;;;;;22.67;7.03;;;;;;;;;;5066611;28;20448;-68
2022/01/16 12:30:25;;;;;;;10.20;4.10;;;;;;;;;;5071462;28;20527;-68
2022/01/16 12:32:53;;;;;;;16.83;4.80;;;;;;;;;;5048403;28;20571;-69
2022/01/16 12:35:58;;;;;;;12.50;5.40;;;;;;;;;;5052240;28;20428;-68
2022/01/16 12:38:25;;;;;;;9.30;3.60;;;;;;;;;;5001781;28;20561;-67
2022/01/16 12:40:58;;;;;;;26.33;7.30;;;;;;;;;;5058012;28;20444;-73
2022/01/16 12:43:29;;;;;;;17.50;6.03;;;;;;;;;;5073131;28;20562;-68
2022/01/16 12:45:55;;;;;;;12.83;5.37;;;;;;;;;;5077036;28;20475;-68
2022/01/16 12:48:22;;;;;;;17.00;5.93;;;;;;;;;;5070379;28;20449;-68
2022/01/16 12:50:49;;;;;;;21.63;7.67;;;;;;;;;;5070485;28;20447;-68
2022/01/16 12:53:36;;;;;;;27.23;5.33;;;;;;;;;;5057491;28;20429;-69
2022/01/16 12:56:22;;;;;;;23.20;7.80;;;;;;;;;;5032411;28;20940;-69
2022/01/16 12:58:51;;;;;;;16.57;4.37;;;;;;;;;;5049606;28;20505;-69
2022/01/16 13:01:17;;;;;;;20.37;8.07;;;;;;;;;;5073837;28;20427;-69
2022/01/16 13:03:44;;;;;;;24.57;6.87;;;;;;;;;;5057013;28;20527;-67
2022/01/16 13:06:26;;;;;;;27.00;6.93;;;;;;;;;;5065172;28;21092;-68
2022/01/16 13:08:56;;;;;;;14.63;6.37;;;;;;;;;;5063005;28;20452;-69
2022/01/16 13:11:26;;;;;;;9.90;4.67;;;;;;;;;;5063521;28;20523;-69
2022/01/16 13:13:53;;;;;;;14.60;3.30;;;;;;;;;;5058252;28;20525;-69
2022/01/16 13:16:20;;;;;;;18.13;4.53;;;;;;;;;;5067627;28;20444;-69
2022/01/16 13:19:07;;;;;;;23.53;8.53;;;;;;;;;;5037429;28;20480;-69
2022/01/16 13:24:37;;;;;;;22.23;8.67;;;;;;;;;;5039530;28;20453;-68
2022/01/16 13:27:06;;;;;;;27.53;11.23;;;;;;;;;;5063680;28;22055;-68
2022/01/16 13:29:34;;;;;;;14.87;5.77;;;;;;;;;;5047722;28;20440;-66
2022/01/16 13:32:02;;;;;;;24.93;8.30;;;;;;;;;;5035528;28;21014;-66
2022/01/16 13:34:42;;;;;;;18.83;7.50;;;;;;;;;;5074549;28;20523;-67
2022/01/16 13:37:14;;;;;;;19.83;8.07;;;;;;;;;;5066308;28;20459;-67
2022/01/16 13:39:46;;;;;;;30.07;9.50;;;;;;;;;;5069011;28;20471;-67
2022/01/16 13:42:13;;;;;;;27.07;10.37;;;;;;;;;;5070250;28;20474;-68
2022/01/16 13:44:40;;;;;;;24.03;9.87;;;;;;;;;;5067430;28;20539;-66
2022/01/16 13:47:08;;;;;;;20.87;9.33;;;;;;;;;;5071864;28;20436;-67
2022/01/16 13:49:42;;;;;;;27.13;10.33;;;;;;;;;;5050418;28;20788;-68
2022/01/16 13:52:10;;;;;;;27.87;10.27;;;;;;;;;;5051608;28;20518;-69
2022/01/16 13:54:38;;;;;;;22.50;8.43;;;;;;;;;;5056116;28;20528;-69
2022/01/16 13:57:05;;;;;;;23.97;8.47;;;;;;;;;;5052017;28;20453;-69
2022/01/16 13:59:32;;;;;;;26.63;9.33;;;;;;;;;;5075120;28;20528;-69
2022/01/16 14:02:01;;;;;;;26.77;10.20;;;;;;;;;;5070157;28;20531;-68
2022/01/16 14:04:29;;;;;;;22.83;8.73;;;;;;;;;;5057939;28;20461;-68
2022/01/16 14:07:01;;;;;;;28.23;9.53;;;;;;;;;;5068440;28;20459;-68
2022/01/16 14:09:31;;;;;;;21.90;8.10;;;;;;;;;;5045591;28;20939;-69
2022/01/16 14:12:01;;;;;;;14.80;5.93;;;;;;;;;;5051252;28;20551;-68
2022/01/16 14:14:37;;;;;;;18.23;7.77;;;;;;;;;;5034211;28;20453;-69
2022/01/16 14:17:28;;;;;;;25.60;9.73;;;;;;;;;;5042408;28;20435;-69
2022/01/16 14:22:19;;;;;;;24.33;10.97;;;;;;;;;;5072467;28;20432;-69
2022/01/16 14:24:55;;;;;;;26.33;9.83;;;;;;;;;;5067845;28;20457;-69
2022/01/16 14:27:23;;;;;;;16.70;6.67;;;;;;;;;;5071345;28;20528;-68
2022/01/16 14:29:50;;;;;;;31.37;11.13;;;;;;;;;;5044111;28;20437;-69
2022/01/16 14:32:17;;;;;;;24.30;10.70;;;;;;;;;;5082664;28;20459;-68
2022/01/16 14:34:45;;;;;;;24.47;9.80;;;;;;;;;;5071128;28;20441;-68
2022/01/16 14:37:14;;;;;;;22.97;8.80;;;;;;;;;;5054854;28;20447;-68
2022/01/16 14:39:41;;;;;;;24.93;9.23;;;;;;;;;;5060618;28;20501;-69
2022/01/16 14:42:08;;;;;;;22.70;9.33;;;;;;;;;;5069941;28;20440;-68
2022/01/16 14:44:36;;;;;;;15.60;5.93;;;;;;;;;;5048322;28;20434;-67
2022/01/16 14:47:09;;;;;;;30.37;9.10;;;;;;;;;;5072117;28;20993;-67
2022/01/16 14:49:37;;;;;;;29.20;11.70;;;;;;;;;;5045621;28;20453;-67
2022/01/16 14:52:05;;;;;;;28.00;11.13;;;;;;;;;;5069906;28;20452;-68
2022/01/16 14:54:44;;;;;;;21.53;10.53;;;;;;;;;;5055150;28;20543;-67
2022/01/16 14:57:12;;;;;;;35.40;11.97;;;;;;;;;;5051705;28;20963;-67
2022/01/16 14:59:39;;;;;;;20.83;8.50;;;;;;;;;;5067789;28;20472;-68
2022/01/16 15:02:06;;;;;;;36.40;12.23;;;;;;;;;;5059728;28;20506;-67
2022/01/16 15:04:33;;;;;;;17.03;5.57;;;;;;;;;;5066847;28;20483;-67
2022/01/16 15:07:00;;;;;;;27.13;10.73;;;;;;;;;;5067613;28;20865;-67
2022/01/16 15:09:27;;;;;;;15.33;7.90;;;;;;;;;;5059917;28;20959;-67
2022/01/16 15:11:53;;;;;;;27.07;10.80;;;;;;;;;;5037925;28;20449;-67
2022/01/16 15:14:20;;;;;;;23.17;8.67;;;;;;;;;;5044619;28;20435;-67
2022/01/16 15:16:49;;;;;;;31.63;11.13;;;;;;;;;;5066707;28;20859;-67
2022/01/16 15:19:18;;;;;;;21.23;9.20;;;;;;;;;;5061589;28;20836;-67
2022/01/16 15:24:14;;;;;;;24.67;10.43;;;;;;;;;;5056187;28;20542;-68
2022/01/16 15:26:42;;;;;;;41.30;14.10;;;;;;;;;;5069916;28;20447;-67
2022/01/16 15:29:11;;;;;;;34.47;12.33;;;;;;;;;;5045672;28;20535;-67
2022/01/16 15:31:39;;;;;;;32.50;12.13;;;;;;;;;;5054570;28;20454;-67
2022/01/16 15:34:05;;;;;;;25.27;9.20;;;;;;;;;;5069750;28;20764;-67
2022/01/16 15:36:32;;;;;;;29.33;12.00;;;;;;;;;;5071786;28;20440;-67
2022/01/16 15:38:59;;;;;;;21.80;8.63;;;;;;;;;;5080229;28;20533;-68
2022/01/16 15:41:26;;;;;;;39.17;13.60;;;;;;;;;;5082658;28;20438;-68
2022/01/16 15:43:53;;;;;;;35.60;13.97;;;;;;;;;;5084958;28;20958;-68
2022/01/16 15:46:23;;;;;;;29.70;9.77;;;;;;;;;;5069876;28;20424;-68
2022/01/16 15:48:50;;;;;;;23.57;8.37;;;;;;;;;;5060123;28;20799;-68
2022/01/16 15:51:17;;;;;;;28.20;11.53;;;;;;;;;;5056115;28;20442;-68
2022/01/16 15:54:03;;;;;;;34.97;11.47;;;;;;;;;;5073613;28;20449;-68
2022/01/16 15:56:30;;;;;;;20.93;8.53;;;;;;;;;;5053240;28;20434;-68
2022/01/16 15:58:57;;;;;;;33.97;10.67;;;;;;;;;;5064646;28;20539;-68
2022/01/16 16:01:24;;;;;;;20.80;9.17;;;;;;;;;;5037775;28;20425;-66
2022/01/16 16:03:51;;;;;;;36.27;12.87;;;;;;;;;;5073864;28;20438;-67
2022/01/16 16:06:18;;;;;;;34.87;14.70;;;;;;;;;;5070147;28;20796;-65